sensor_id;sensor_type;location;lat;lon;timestamp;P1;durP1;ratioP1;P2;durP2;ratioP2
53411;SDS011;39307;52.870;13.660;2024-02-21T00:00:20;2.38;;;1.13;;
53411;SDS011;39307;52.870;13.660;2024-02-21T00:02:47;2.20;;;0.93;;
53411;SDS011;39307;52.870;13.660;2024-02-21T00:05:14;2.47;;;1.00;;
53411;SDS011;39307;52.870;13.660;2024-02-21T00:07:41;2.45;;;1.10;;
53411;SDS011;39307;52.870;13.660;2024-02-21T00:10:08;2.58;;;1.10;;
53411;SDS011;39307;52.870;13.660;2024-02-21T00:12:35;2.40;;;0.90;;
53411;SDS011;39307;52.870;13.660;2024-02-21T00:15:02;2.10;;;1.05;;
53411;SDS011;39307;52.870;13.660;2024-02-21T00:17:29;2.08;;;0.93;;
53411;SDS011;39307;52.870;13.660;2024-02-21T00:19:55;2.63;;;1.20;;
53411;SDS011;39307;52.870;13.660;2024-02-21T00:22:22;2.63;;;1.20;;
53411;SDS011;39307;52.870;13.660;2024-02-21T00:24:49;2.58;;;1.13;;
53411;SDS011;39307;52.870;13.660;2024-02-21T00:27:16;2.63;;;1.00;;
53411;SDS011;39307;52.870;13.660;2024-02-21T00:29:43;2.37;;;1.00;;
53411;SDS011;39307;52.870;13.660;2024-02-21T00:32:10;2.42;;;1.10;;
53411;SDS011;39307;52.870;13.660;2024-02-21T00:34:36;2.38;;;1.00;;
53411;SDS011;39307;52.870;13.660;2024-02-21T00:37:03;2.17;;;0.93;;
53411;SDS011;39307;52.870;13.660;2024-02-21T00:39:30;2.13;;;1.20;;
53411;SDS011;39307;52.870;13.660;2024-02-21T00:41:57;3.25;;;1.30;;
53411;SDS011;39307;52.870;13.660;2024-02-21T00:44:24;2.80;;;1.17;;
53411;SDS011;39307;52.870;13.660;2024-02-21T00:46:51;3.00;;;1.30;;
53411;SDS011;39307;52.870;13.660;2024-02-21T00:49:17;2.42;;;1.00;;
53411;SDS011;39307;52.870;13.660;2024-02-21T00:51:44;2.38;;;1.10;;
53411;SDS011;39307;52.870;13.660;2024-02-21T00:54:11;1.98;;;1.00;;
53411;SDS011;39307;52.870;13.660;2024-02-21T00:56:38;2.85;;;1.30;;
53411;SDS011;39307;52.870;13.660;2024-02-21T00:59:05;2.10;;;1.08;;
53411;SDS011;39307;52.870;13.660;2024-02-21T01:01:31;3.13;;;1.25;;
53411;SDS011;39307;52.870;13.660;2024-02-21T01:03:58;2.55;;;1.20;;
53411;SDS011;39307;52.870;13.660;2024-02-21T01:06:28;2.60;;;0.98;;
53411;SDS011;39307;52.870;13.660;2024-02-21T01:08:55;2.67;;;1.17;;
53411;SDS011;39307;52.870;13.660;2024-02-21T01:11:22;2.75;;;1.10;;
53411;SDS011;39307;52.870;13.660;2024-02-21T01:13:49;2.85;;;1.20;;
53411;SDS011;39307;52.870;13.660;2024-02-21T01:16:16;2.67;;;1.10;;
53411;SDS011;39307;52.870;13.660;2024-02-21T01:18:43;2.60;;;1.05;;
53411;SDS011;39307;52.870;13.660;2024-02-21T01:21:10;2.72;;;1.30;;
53411;SDS011;39307;52.870;13.660;2024-02-21T01:23:36;2.63;;;1.15;;
53411;SDS011;39307;52.870;13.660;2024-02-21T01:26:03;2.92;;;1.40;;
53411;SDS011;39307;52.870;13.660;2024-02-21T01:28:30;2.83;;;1.15;;
53411;SDS011;39307;52.870;13.660;2024-02-21T01:30:57;2.88;;;1.25;;
53411;SDS011;39307;52.870;13.660;2024-02-21T01:33:24;3.17;;;1.30;;
53411;SDS011;39307;52.870;13.660;2024-02-21T01:35:52;2.97;;;1.40;;
53411;SDS011;39307;52.870;13.660;2024-02-21T01:38:19;2.00;;;0.93;;
53411;SDS011;39307;52.870;13.660;2024-02-21T01:40:46;2.10;;;1.02;;
53411;SDS011;39307;52.870;13.660;2024-02-21T01:43:18;2.80;;;1.10;;
53411;SDS011;39307;52.870;13.660;2024-02-21T01:45:46;2.63;;;1.20;;
53411;SDS011;39307;52.870;13.660;2024-02-21T01:48:24;2.75;;;1.30;;
53411;SDS011;39307;52.870;13.660;2024-02-21T01:50:51;1.98;;;0.90;;
53411;SDS011;39307;52.870;13.660;2024-02-21T01:53:24;2.47;;;1.30;;
53411;SDS011;39307;52.870;13.660;2024-02-21T01:56:08;2.58;;;1.13;;
53411;SDS011;39307;52.870;13.660;2024-02-21T01:58:36;2.95;;;1.23;;
53411;SDS011;39307;52.870;13.660;2024-02-21T02:01:05;2.88;;;1.20;;
53411;SDS011;39307;52.870;13.660;2024-02-21T02:03:32;2.85;;;1.30;;
53411;SDS011;39307;52.870;13.660;2024-02-21T02:06:00;2.20;;;1.10;;
53411;SDS011;39307;52.870;13.660;2024-02-21T02:08:27;2.72;;;1.23;;
53411;SDS011;39307;52.870;13.660;2024-02-21T02:10:54;2.70;;;1.17;;
53411;SDS011;39307;52.870;13.660;2024-02-21T02:13:21;2.53;;;1.20;;
53411;SDS011;39307;52.870;13.660;2024-02-21T02:15:48;2.63;;;1.20;;
53411;SDS011;39307;52.870;13.660;2024-02-21T02:18:16;2.50;;;1.20;;
53411;SDS011;39307;52.870;13.660;2024-02-21T02:20:45;2.40;;;1.20;;
53411;SDS011;39307;52.870;13.660;2024-02-21T02:25:58;2.88;;;1.15;;
53411;SDS011;39307;52.870;13.660;2024-02-21T02:28:25;2.95;;;1.20;;
53411;SDS011;39307;52.870;13.660;2024-02-21T02:30:52;2.60;;;1.20;;
53411;SDS011;39307;52.870;13.660;2024-02-21T02:33:19;2.58;;;1.20;;
53411;SDS011;39307;52.870;13.660;2024-02-21T02:35:46;2.92;;;1.27;;
53411;SDS011;39307;52.870;13.660;2024-02-21T02:38:13;3.30;;;1.38;;
53411;SDS011;39307;52.870;13.660;2024-02-21T02:40:40;3.05;;;1.35;;
53411;SDS011;39307;52.870;13.660;2024-02-21T02:43:07;3.58;;;1.23;;
53411;SDS011;39307;52.870;13.660;2024-02-21T02:45:35;2.33;;;1.10;;
53411;SDS011;39307;52.870;13.660;2024-02-21T02:48:02;3.20;;;1.40;;
53411;SDS011;39307;52.870;13.660;2024-02-21T02:50:29;3.35;;;1.40;;
53411;SDS011;39307;52.870;13.660;2024-02-21T02:52:56;2.90;;;1.47;;
53411;SDS011;39307;52.870;13.660;2024-02-21T02:55:23;3.30;;;1.50;;
53411;SDS011;39307;52.870;13.660;2024-02-21T02:57:49;3.38;;;1.42;;
53411;SDS011;39307;52.870;13.660;2024-02-21T03:00:16;2.92;;;1.30;;
53411;SDS011;39307;52.870;13.660;2024-02-21T03:02:43;2.58;;;1.25;;
53411;SDS011;39307;52.870;13.660;2024-02-21T03:05:13;2.88;;;1.23;;
53411;SDS011;39307;52.870;13.660;2024-02-21T03:07:45;3.70;;;1.40;;
53411;SDS011;39307;52.870;13.660;2024-02-21T03:10:13;2.60;;;1.33;;
53411;SDS011;39307;52.870;13.660;2024-02-21T03:12:40;2.73;;;1.23;;
53411;SDS011;39307;52.870;13.660;2024-02-21T03:15:07;3.70;;;1.50;;
53411;SDS011;39307;52.870;13.660;2024-02-21T03:17:34;3.43;;;1.40;;
53411;SDS011;39307;52.870;13.660;2024-02-21T03:20:01;3.08;;;1.35;;
53411;SDS011;39307;52.870;13.660;2024-02-21T03:22:29;2.80;;;1.45;;
53411;SDS011;39307;52.870;13.660;2024-02-21T03:24:56;3.05;;;1.40;;
53411;SDS011;39307;52.870;13.660;2024-02-21T03:27:23;3.50;;;1.48;;
53411;SDS011;39307;52.870;13.660;2024-02-21T03:29:50;3.47;;;1.45;;
53411;SDS011;39307;52.870;13.660;2024-02-21T03:32:16;3.72;;;1.50;;
53411;SDS011;39307;52.870;13.660;2024-02-21T03:34:43;3.63;;;1.58;;
53411;SDS011;39307;52.870;13.660;2024-02-21T03:37:10;2.90;;;1.48;;
53411;SDS011;39307;52.870;13.660;2024-02-21T03:39:37;2.88;;;1.50;;
53411;SDS011;39307;52.870;13.660;2024-02-21T03:42:04;2.55;;;1.40;;
53411;SDS011;39307;52.870;13.660;2024-02-21T03:44:31;3.15;;;1.50;;
53411;SDS011;39307;52.870;13.660;2024-02-21T03:46:59;3.95;;;1.70;;
53411;SDS011;39307;52.870;13.660;2024-02-21T03:49:26;3.60;;;1.70;;
53411;SDS011;39307;52.870;13.660;2024-02-21T03:51:53;2.95;;;1.60;;
53411;SDS011;39307;52.870;13.660;2024-02-21T03:54:20;3.72;;;1.63;;
53411;SDS011;39307;52.870;13.660;2024-02-21T03:56:47;4.05;;;1.80;;
53411;SDS011;39307;52.870;13.660;2024-02-21T03:59:14;3.60;;;1.70;;
53411;SDS011;39307;52.870;13.660;2024-02-21T04:01:41;3.40;;;1.60;;
53411;SDS011;39307;52.870;13.660;2024-02-21T04:04:08;4.45;;;1.80;;
53411;SDS011;39307;52.870;13.660;2024-02-21T04:06:35;3.72;;;1.63;;
53411;SDS011;39307;52.870;13.660;2024-02-21T04:09:02;3.95;;;1.90;;
53411;SDS011;39307;52.870;13.660;2024-02-21T04:11:29;2.97;;;1.50;;
53411;SDS011;39307;52.870;13.660;2024-02-21T04:13:56;3.55;;;1.70;;
53411;SDS011;39307;52.870;13.660;2024-02-21T04:16:23;3.50;;;1.77;;
53411;SDS011;39307;52.870;13.660;2024-02-21T04:18:49;3.58;;;1.58;;
53411;SDS011;39307;52.870;13.660;2024-02-21T04:21:16;4.20;;;1.67;;
53411;SDS011;39307;52.870;13.660;2024-02-21T04:23:43;3.88;;;1.75;;
53411;SDS011;39307;52.870;13.660;2024-02-21T04:26:10;3.90;;;1.70;;
53411;SDS011;39307;52.870;13.660;2024-02-21T04:28:37;4.00;;;1.98;;
53411;SDS011;39307;52.870;13.660;2024-02-21T04:31:03;3.87;;;1.90;;
53411;SDS011;39307;52.870;13.660;2024-02-21T04:33:30;4.03;;;1.70;;
53411;SDS011;39307;52.870;13.660;2024-02-21T04:35:57;5.45;;;1.80;;
53411;SDS011;39307;52.870;13.660;2024-02-21T04:38:24;4.57;;;2.00;;
53411;SDS011;39307;52.870;13.660;2024-02-21T04:40:51;3.75;;;1.70;;
53411;SDS011;39307;52.870;13.660;2024-02-21T04:43:18;4.00;;;1.90;;
53411;SDS011;39307;52.870;13.660;2024-02-21T04:45:45;4.75;;;1.90;;
53411;SDS011;39307;52.870;13.660;2024-02-21T04:48:12;4.80;;;2.00;;
53411;SDS011;39307;52.870;13.660;2024-02-21T04:50:38;4.77;;;2.00;;
53411;SDS011;39307;52.870;13.660;2024-02-21T04:53:05;4.30;;;1.80;;
53411;SDS011;39307;52.870;13.660;2024-02-21T04:55:32;4.00;;;1.95;;
53411;SDS011;39307;52.870;13.660;2024-02-21T04:57:59;4.35;;;1.90;;
53411;SDS011;39307;52.870;13.660;2024-02-21T05:00:26;4.45;;;2.15;;
53411;SDS011;39307;52.870;13.660;2024-02-21T05:02:54;4.90;;;1.95;;
53411;SDS011;39307;52.870;13.660;2024-02-21T05:05:20;4.13;;;1.80;;
53411;SDS011;39307;52.870;13.660;2024-02-21T05:07:47;3.58;;;1.73;;
53411;SDS011;39307;52.870;13.660;2024-02-21T05:10:14;4.70;;;2.20;;
53411;SDS011;39307;52.870;13.660;2024-02-21T05:12:41;4.80;;;2.10;;
53411;SDS011;39307;52.870;13.660;2024-02-21T05:15:08;4.95;;;2.20;;
53411;SDS011;39307;52.870;13.660;2024-02-21T05:17:35;4.97;;;2.30;;
53411;SDS011;39307;52.870;13.660;2024-02-21T05:20:02;4.23;;;2.10;;
53411;SDS011;39307;52.870;13.660;2024-02-21T05:22:29;4.10;;;2.00;;
53411;SDS011;39307;52.870;13.660;2024-02-21T05:24:56;4.40;;;2.20;;
53411;SDS011;39307;52.870;13.660;2024-02-21T05:27:22;4.68;;;2.20;;
53411;SDS011;39307;52.870;13.660;2024-02-21T05:29:49;4.50;;;2.20;;
53411;SDS011;39307;52.870;13.660;2024-02-21T05:32:15;4.68;;;2.30;;
53411;SDS011;39307;52.870;13.660;2024-02-21T05:34:42;4.50;;;1.98;;
53411;SDS011;39307;52.870;13.660;2024-02-21T05:37:09;5.10;;;2.00;;
53411;SDS011;39307;52.870;13.660;2024-02-21T05:39:36;4.35;;;2.15;;
53411;SDS011;39307;52.870;13.660;2024-02-21T05:42:03;3.55;;;1.95;;
53411;SDS011;39307;52.870;13.660;2024-02-21T05:44:30;4.45;;;2.20;;
53411;SDS011;39307;52.870;13.660;2024-02-21T05:46:57;4.90;;;2.20;;
53411;SDS011;39307;52.870;13.660;2024-02-21T05:49:24;4.30;;;2.00;;
53411;SDS011;39307;52.870;13.660;2024-02-21T05:51:50;4.45;;;2.15;;
53411;SDS011;39307;52.870;13.660;2024-02-21T05:54:17;6.03;;;2.30;;
53411;SDS011;39307;52.870;13.660;2024-02-21T05:56:45;4.15;;;2.17;;
53411;SDS011;39307;52.870;13.660;2024-02-21T05:59:12;4.45;;;2.40;;
53411;SDS011;39307;52.870;13.660;2024-02-21T06:01:39;4.38;;;2.22;;
53411;SDS011;39307;52.870;13.660;2024-02-21T06:04:06;4.85;;;2.28;;
53411;SDS011;39307;52.870;13.660;2024-02-21T06:06:32;4.35;;;2.15;;
53411;SDS011;39307;52.870;13.660;2024-02-21T06:08:59;5.05;;;2.33;;
53411;SDS011;39307;52.870;13.660;2024-02-21T06:11:26;4.75;;;2.30;;
53411;SDS011;39307;52.870;13.660;2024-02-21T06:13:53;5.70;;;2.55;;
53411;SDS011;39307;52.870;13.660;2024-02-21T06:16:20;4.55;;;2.30;;
53411;SDS011;39307;52.870;13.660;2024-02-21T06:18:47;4.72;;;2.22;;
53411;SDS011;39307;52.870;13.660;2024-02-21T06:21:13;4.72;;;2.28;;
53411;SDS011;39307;52.870;13.660;2024-02-21T06:23:40;6.57;;;2.90;;
53411;SDS011;39307;52.870;13.660;2024-02-21T06:26:07;5.22;;;2.47;;
53411;SDS011;39307;52.870;13.660;2024-02-21T06:28:34;4.85;;;2.25;;
53411;SDS011;39307;52.870;13.660;2024-02-21T06:31:01;5.47;;;2.70;;
53411;SDS011;39307;52.870;13.660;2024-02-21T06:33:28;4.63;;;2.33;;
53411;SDS011;39307;52.870;13.660;2024-02-21T06:35:55;4.68;;;2.40;;
53411;SDS011;39307;52.870;13.660;2024-02-21T06:38:22;4.53;;;2.17;;
53411;SDS011;39307;52.870;13.660;2024-02-21T06:40:49;4.55;;;2.42;;
53411;SDS011;39307;52.870;13.660;2024-02-21T06:43:19;4.10;;;2.10;;
53411;SDS011;39307;52.870;13.660;2024-02-21T06:45:46;4.97;;;2.20;;
53411;SDS011;39307;52.870;13.660;2024-02-21T06:48:13;4.38;;;2.15;;
53411;SDS011;39307;52.870;13.660;2024-02-21T06:50:40;4.90;;;2.40;;
53411;SDS011;39307;52.870;13.660;2024-02-21T06:53:07;5.53;;;2.60;;
53411;SDS011;39307;52.870;13.660;2024-02-21T06:55:34;5.20;;;2.47;;
53411;SDS011;39307;52.870;13.660;2024-02-21T06:58:01;5.40;;;2.50;;
53411;SDS011;39307;52.870;13.660;2024-02-21T07:00:31;5.18;;;2.30;;
53411;SDS011;39307;52.870;13.660;2024-02-21T07:02:58;5.45;;;2.80;;
53411;SDS011;39307;52.870;13.660;2024-02-21T07:05:24;5.07;;;2.53;;
53411;SDS011;39307;52.870;13.660;2024-02-21T07:07:51;5.68;;;2.65;;
53411;SDS011;39307;52.870;13.660;2024-02-21T07:10:18;5.20;;;2.55;;
53411;SDS011;39307;52.870;13.660;2024-02-21T07:12:45;5.10;;;2.47;;
53411;SDS011;39307;52.870;13.660;2024-02-21T07:15:12;5.78;;;2.60;;
53411;SDS011;39307;52.870;13.660;2024-02-21T07:17:38;5.38;;;2.58;;
53411;SDS011;39307;52.870;13.660;2024-02-21T07:20:05;5.20;;;2.58;;
53411;SDS011;39307;52.870;13.660;2024-02-21T07:22:33;5.38;;;2.72;;
53411;SDS011;39307;52.870;13.660;2024-02-21T07:25:01;5.03;;;2.60;;
53411;SDS011;39307;52.870;13.660;2024-02-21T07:27:27;5.28;;;2.60;;
53411;SDS011;39307;52.870;13.660;2024-02-21T07:29:54;4.90;;;2.67;;
53411;SDS011;39307;52.870;13.660;2024-02-21T07:32:21;4.95;;;2.55;;
53411;SDS011;39307;52.870;13.660;2024-02-21T07:34:48;5.88;;;2.53;;
53411;SDS011;39307;52.870;13.660;2024-02-21T07:37:14;4.63;;;2.42;;
53411;SDS011;39307;52.870;13.660;2024-02-21T07:39:41;5.35;;;2.67;;
53411;SDS011;39307;52.870;13.660;2024-02-21T07:42:08;4.78;;;2.58;;
53411;SDS011;39307;52.870;13.660;2024-02-21T07:44:34;5.82;;;2.88;;
53411;SDS011;39307;52.870;13.660;2024-02-21T07:47:01;5.50;;;2.80;;
53411;SDS011;39307;52.870;13.660;2024-02-21T07:49:29;5.33;;;2.40;;
53411;SDS011;39307;52.870;13.660;2024-02-21T07:51:56;4.85;;;2.60;;
53411;SDS011;39307;52.870;13.660;2024-02-21T07:54:26;4.35;;;2.63;;
53411;SDS011;39307;52.870;13.660;2024-02-21T07:56:53;5.70;;;2.80;;
53411;SDS011;39307;52.870;13.660;2024-02-21T07:59:20;5.20;;;2.70;;
53411;SDS011;39307;52.870;13.660;2024-02-21T08:01:46;5.68;;;3.00;;
53411;SDS011;39307;52.870;13.660;2024-02-21T08:04:13;5.20;;;2.58;;
53411;SDS011;39307;52.870;13.660;2024-02-21T08:06:40;5.05;;;2.50;;
53411;SDS011;39307;52.870;13.660;2024-02-21T08:09:07;4.60;;;2.65;;
53411;SDS011;39307;52.870;13.660;2024-02-21T08:11:34;5.05;;;2.70;;
53411;SDS011;39307;52.870;13.660;2024-02-21T08:14:01;5.22;;;2.55;;
53411;SDS011;39307;52.870;13.660;2024-02-21T08:16:27;5.45;;;2.75;;
53411;SDS011;39307;52.870;13.660;2024-02-21T08:18:54;5.50;;;3.17;;
53411;SDS011;39307;52.870;13.660;2024-02-21T08:21:21;4.47;;;2.30;;
53411;SDS011;39307;52.870;13.660;2024-02-21T08:23:48;5.57;;;2.70;;
53411;SDS011;39307;52.870;13.660;2024-02-21T08:26:15;3.93;;;2.40;;
53411;SDS011;39307;52.870;13.660;2024-02-21T08:28:42;5.32;;;2.78;;
53411;SDS011;39307;52.870;13.660;2024-02-21T08:31:09;5.30;;;2.90;;
53411;SDS011;39307;52.870;13.660;2024-02-21T08:33:35;5.20;;;2.83;;
53411;SDS011;39307;52.870;13.660;2024-02-21T08:36:02;4.72;;;2.58;;
53411;SDS011;39307;52.870;13.660;2024-02-21T08:38:30;5.70;;;2.80;;
53411;SDS011;39307;52.870;13.660;2024-02-21T08:40:57;5.82;;;2.88;;
53411;SDS011;39307;52.870;13.660;2024-02-21T08:43:24;4.80;;;2.63;;
53411;SDS011;39307;52.870;13.660;2024-02-21T08:45:51;5.50;;;2.72;;
53411;SDS011;39307;52.870;13.660;2024-02-21T08:48:17;5.45;;;2.80;;
53411;SDS011;39307;52.870;13.660;2024-02-21T08:50:44;5.07;;;2.87;;
53411;SDS011;39307;52.870;13.660;2024-02-21T08:53:20;5.32;;;2.92;;
53411;SDS011;39307;52.870;13.660;2024-02-21T08:55:47;6.45;;;3.15;;
53411;SDS011;39307;52.870;13.660;2024-02-21T08:58:14;5.93;;;3.03;;
53411;SDS011;39307;52.870;13.660;2024-02-21T09:00:41;5.67;;;2.90;;
53411;SDS011;39307;52.870;13.660;2024-02-21T09:03:07;7.50;;;2.95;;
53411;SDS011;39307;52.870;13.660;2024-02-21T09:05:34;5.95;;;3.08;;
53411;SDS011;39307;52.870;13.660;2024-02-21T09:08:01;5.37;;;2.80;;
53411;SDS011;39307;52.870;13.660;2024-02-21T09:10:28;6.40;;;3.13;;
53411;SDS011;39307;52.870;13.660;2024-02-21T09:12:55;5.75;;;3.00;;
53411;SDS011;39307;52.870;13.660;2024-02-21T09:15:22;5.10;;;3.08;;
53411;SDS011;39307;52.870;13.660;2024-02-21T09:17:49;5.07;;;2.80;;
53411;SDS011;39307;52.870;13.660;2024-02-21T09:20:15;6.18;;;3.20;;
53411;SDS011;39307;52.870;13.660;2024-02-21T09:22:42;6.57;;;3.30;;
53411;SDS011;39307;52.870;13.660;2024-02-21T09:25:09;6.03;;;3.13;;
53411;SDS011;39307;52.870;13.660;2024-02-21T09:27:36;4.90;;;2.67;;
53411;SDS011;39307;52.870;13.660;2024-02-21T09:30:04;5.25;;;3.00;;
53411;SDS011;39307;52.870;13.660;2024-02-21T09:32:32;5.37;;;3.07;;
53411;SDS011;39307;52.870;13.660;2024-02-21T09:34:59;5.32;;;3.05;;
53411;SDS011;39307;52.870;13.660;2024-02-21T09:37:25;5.43;;;2.95;;
53411;SDS011;39307;52.870;13.660;2024-02-21T09:39:52;6.03;;;3.00;;
53411;SDS011;39307;52.870;13.660;2024-02-21T09:42:20;4.78;;;2.85;;
53411;SDS011;39307;52.870;13.660;2024-02-21T09:44:47;5.40;;;2.90;;
53411;SDS011;39307;52.870;13.660;2024-02-21T09:47:18;5.93;;;2.97;;
53411;SDS011;39307;52.870;13.660;2024-02-21T09:50:28;5.72;;;3.20;;
53411;SDS011;39307;52.870;13.660;2024-02-21T09:52:56;6.15;;;3.22;;
53411;SDS011;39307;52.870;13.660;2024-02-21T09:55:24;5.65;;;3.10;;
53411;SDS011;39307;52.870;13.660;2024-02-21T09:57:53;5.65;;;3.30;;
53411;SDS011;39307;52.870;13.660;2024-02-21T10:00:20;6.55;;;3.47;;
53411;SDS011;39307;52.870;13.660;2024-02-21T10:02:48;5.90;;;3.20;;
53411;SDS011;39307;52.870;13.660;2024-02-21T10:05:15;5.53;;;3.08;;
53411;SDS011;39307;52.870;13.660;2024-02-21T10:07:42;6.22;;;3.38;;
53411;SDS011;39307;52.870;13.660;2024-02-21T10:10:09;5.88;;;3.28;;
53411;SDS011;39307;52.870;13.660;2024-02-21T10:12:36;6.07;;;3.60;;
53411;SDS011;39307;52.870;13.660;2024-02-21T10:15:19;6.10;;;3.15;;
53411;SDS011;39307;52.870;13.660;2024-02-21T10:17:47;5.78;;;3.22;;
53411;SDS011;39307;52.870;13.660;2024-02-21T10:20:14;6.07;;;3.50;;
53411;SDS011;39307;52.870;13.660;2024-02-21T10:22:41;7.18;;;3.65;;
53411;SDS011;39307;52.870;13.660;2024-02-21T10:25:11;5.75;;;3.33;;
53411;SDS011;39307;52.870;13.660;2024-02-21T10:27:39;6.20;;;3.58;;
53411;SDS011;39307;52.870;13.660;2024-02-21T10:30:24;5.57;;;3.38;;
53411;SDS011;39307;52.870;13.660;2024-02-21T10:32:54;6.00;;;3.42;;
53411;SDS011;39307;52.870;13.660;2024-02-21T10:35:28;6.97;;;3.30;;
53411;SDS011;39307;52.870;13.660;2024-02-21T10:37:59;6.80;;;3.70;;
53411;SDS011;39307;52.870;13.660;2024-02-21T10:40:27;5.38;;;3.28;;
53411;SDS011;39307;52.870;13.660;2024-02-21T10:43:01;6.63;;;3.40;;
53411;SDS011;39307;52.870;13.660;2024-02-21T10:45:32;6.57;;;3.70;;
53411;SDS011;39307;52.870;13.660;2024-02-21T10:48:06;6.63;;;3.70;;
53411;SDS011;39307;52.870;13.660;2024-02-21T10:57:03;6.30;;;3.60;;
53411;SDS011;39307;52.870;13.660;2024-02-21T10:59:31;6.43;;;3.78;;
53411;SDS011;39307;52.870;13.660;2024-02-21T11:01:59;6.82;;;3.70;;
53411;SDS011;39307;52.870;13.660;2024-02-21T11:04:26;6.00;;;3.50;;
53411;SDS011;39307;52.870;13.660;2024-02-21T11:06:53;6.57;;;3.83;;
53411;SDS011;39307;52.870;13.660;2024-02-21T11:09:29;6.63;;;3.70;;
53411;SDS011;39307;52.870;13.660;2024-02-21T11:11:57;6.63;;;3.72;;
53411;SDS011;39307;52.870;13.660;2024-02-21T11:14:28;6.70;;;3.88;;
53411;SDS011;39307;52.870;13.660;2024-02-21T11:16:55;6.25;;;3.83;;
53411;SDS011;39307;52.870;13.660;2024-02-21T11:19:24;5.88;;;3.42;;
53411;SDS011;39307;52.870;13.660;2024-02-21T11:21:52;7.10;;;4.03;;
53411;SDS011;39307;52.870;13.660;2024-02-21T11:30:00;6.30;;;3.75;;
53411;SDS011;39307;52.870;13.660;2024-02-21T11:32:31;5.63;;;3.58;;
53411;SDS011;39307;52.870;13.660;2024-02-21T11:34:58;6.22;;;3.80;;
53411;SDS011;39307;52.870;13.660;2024-02-21T11:37:27;6.22;;;3.80;;
53411;SDS011;39307;52.870;13.660;2024-02-21T11:39:55;6.60;;;3.90;;
53411;SDS011;39307;52.870;13.660;2024-02-21T11:42:22;5.25;;;3.30;;
53411;SDS011;39307;52.870;13.660;2024-02-21T11:44:52;7.30;;;4.22;;
53411;SDS011;39307;52.870;13.660;2024-02-21T11:47:19;5.90;;;3.72;;
53411;SDS011;39307;52.870;13.660;2024-02-21T11:49:46;6.43;;;3.77;;
53411;SDS011;39307;52.870;13.660;2024-02-21T11:52:15;6.72;;;4.00;;
53411;SDS011;39307;52.870;13.660;2024-02-21T11:54:42;5.60;;;3.45;;
53411;SDS011;39307;52.870;13.660;2024-02-21T11:57:09;6.93;;;4.10;;
53411;SDS011;39307;52.870;13.660;2024-02-21T11:59:36;6.38;;;3.53;;
53411;SDS011;39307;52.870;13.660;2024-02-21T12:02:06;6.43;;;3.70;;
53411;SDS011;39307;52.870;13.660;2024-02-21T12:04:33;6.32;;;3.92;;
53411;SDS011;39307;52.870;13.660;2024-02-21T12:07:01;6.23;;;3.70;;
53411;SDS011;39307;52.870;13.660;2024-02-21T12:09:28;6.43;;;3.80;;
53411;SDS011;39307;52.870;13.660;2024-02-21T12:11:59;6.18;;;3.90;;
53411;SDS011;39307;52.870;13.660;2024-02-21T12:14:28;6.50;;;4.05;;
53411;SDS011;39307;52.870;13.660;2024-02-21T12:16:56;6.45;;;3.95;;
53411;SDS011;39307;52.870;13.660;2024-02-21T12:19:23;6.15;;;3.70;;
53411;SDS011;39307;52.870;13.660;2024-02-21T12:21:50;5.97;;;3.75;;
53411;SDS011;39307;52.870;13.660;2024-02-21T12:24:22;6.05;;;3.65;;
53411;SDS011;39307;52.870;13.660;2024-02-21T12:26:54;7.13;;;3.83;;
53411;SDS011;39307;52.870;13.660;2024-02-21T12:29:22;5.85;;;3.50;;
53411;SDS011;39307;52.870;13.660;2024-02-21T12:31:49;6.28;;;3.67;;
53411;SDS011;39307;52.870;13.660;2024-02-21T12:34:17;6.60;;;3.78;;
53411;SDS011;39307;52.870;13.660;2024-02-21T12:36:44;6.07;;;3.50;;
53411;SDS011;39307;52.870;13.660;2024-02-21T12:39:12;5.85;;;3.72;;
53411;SDS011;39307;52.870;13.660;2024-02-21T12:41:39;6.22;;;3.83;;
53411;SDS011;39307;52.870;13.660;2024-02-21T12:44:06;5.35;;;3.35;;
53411;SDS011;39307;52.870;13.660;2024-02-21T12:46:34;5.75;;;3.55;;
53411;SDS011;39307;52.870;13.660;2024-02-21T12:49:04;6.25;;;3.42;;
53411;SDS011;39307;52.870;13.660;2024-02-21T12:51:31;6.03;;;3.53;;
53411;SDS011;39307;52.870;13.660;2024-02-21T12:53:58;6.05;;;3.75;;
53411;SDS011;39307;52.870;13.660;2024-02-21T12:56:25;5.47;;;3.33;;
53411;SDS011;39307;52.870;13.660;2024-02-21T12:58:52;6.68;;;3.90;;
53411;SDS011;39307;52.870;13.660;2024-02-21T13:01:19;6.68;;;3.75;;
53411;SDS011;39307;52.870;13.660;2024-02-21T13:03:46;6.10;;;3.63;;
53411;SDS011;39307;52.870;13.660;2024-02-21T13:06:13;6.20;;;3.85;;
53411;SDS011;39307;52.870;13.660;2024-02-21T13:08:40;5.80;;;3.83;;
53411;SDS011;39307;52.870;13.660;2024-02-21T13:11:07;5.57;;;3.65;;
53411;SDS011;39307;52.870;13.660;2024-02-21T13:13:34;6.13;;;3.88;;
53411;SDS011;39307;52.870;13.660;2024-02-21T13:16:01;5.85;;;3.70;;
53411;SDS011;39307;52.870;13.660;2024-02-21T13:18:28;6.25;;;3.60;;
53411;SDS011;39307;52.870;13.660;2024-02-21T13:20:55;5.43;;;3.45;;
53411;SDS011;39307;52.870;13.660;2024-02-21T13:23:22;5.93;;;3.57;;
53411;SDS011;39307;52.870;13.660;2024-02-21T13:25:49;4.95;;;3.38;;
53411;SDS011;39307;52.870;13.660;2024-02-21T13:28:16;5.55;;;3.50;;
53411;SDS011;39307;52.870;13.660;2024-02-21T13:30:43;5.50;;;3.40;;
53411;SDS011;39307;52.870;13.660;2024-02-21T13:33:10;6.10;;;3.45;;
53411;SDS011;39307;52.870;13.660;2024-02-21T13:35:37;5.13;;;3.58;;
53411;SDS011;39307;52.870;13.660;2024-02-21T13:38:04;5.73;;;3.53;;
53411;SDS011;39307;52.870;13.660;2024-02-21T13:40:31;4.85;;;3.03;;
53411;SDS011;39307;52.870;13.660;2024-02-21T13:42:58;5.88;;;3.30;;
53411;SDS011;39307;52.870;13.660;2024-02-21T13:45:24;5.72;;;3.45;;
53411;SDS011;39307;52.870;13.660;2024-02-21T13:47:51;5.03;;;3.17;;
53411;SDS011;39307;52.870;13.660;2024-02-21T13:50:18;5.43;;;3.43;;
53411;SDS011;39307;52.870;13.660;2024-02-21T13:52:49;4.82;;;3.08;;
53411;SDS011;39307;52.870;13.660;2024-02-21T13:55:15;5.20;;;3.30;;
53411;SDS011;39307;52.870;13.660;2024-02-21T13:57:42;4.95;;;3.22;;
53411;SDS011;39307;52.870;13.660;2024-02-21T14:00:09;5.72;;;3.70;;
53411;SDS011;39307;52.870;13.660;2024-02-21T14:02:37;5.70;;;3.40;;
53411;SDS011;39307;52.870;13.660;2024-02-21T14:05:04;5.38;;;3.38;;
53411;SDS011;39307;52.870;13.660;2024-02-21T14:07:31;5.03;;;3.28;;
53411;SDS011;39307;52.870;13.660;2024-02-21T14:09:58;5.30;;;3.00;;
53411;SDS011;39307;52.870;13.660;2024-02-21T14:12:25;5.13;;;3.30;;
53411;SDS011;39307;52.870;13.660;2024-02-21T14:14:52;6.20;;;3.30;;
53411;SDS011;39307;52.870;13.660;2024-02-21T14:17:18;5.65;;;3.28;;
53411;SDS011;39307;52.870;13.660;2024-02-21T14:19:45;5.05;;;3.30;;
53411;SDS011;39307;52.870;13.660;2024-02-21T14:22:12;5.03;;;3.20;;
53411;SDS011;39307;52.870;13.660;2024-02-21T14:24:39;4.72;;;3.15;;
53411;SDS011;39307;52.870;13.660;2024-02-21T14:27:07;4.90;;;2.92;;
53411;SDS011;39307;52.870;13.660;2024-02-21T14:29:34;5.22;;;3.15;;
53411;SDS011;39307;52.870;13.660;2024-02-21T14:32:01;4.85;;;3.00;;
53411;SDS011;39307;52.870;13.660;2024-02-21T14:34:29;5.07;;;3.20;;
53411;SDS011;39307;52.870;13.660;2024-02-21T14:36:55;5.00;;;3.33;;
53411;SDS011;39307;52.870;13.660;2024-02-21T14:39:23;4.75;;;3.08;;
53411;SDS011;39307;52.870;13.660;2024-02-21T14:41:50;4.72;;;2.92;;
53411;SDS011;39307;52.870;13.660;2024-02-21T14:44:16;5.20;;;3.38;;
53411;SDS011;39307;52.870;13.660;2024-02-21T14:46:43;5.00;;;3.30;;
53411;SDS011;39307;52.870;13.660;2024-02-21T14:49:10;4.88;;;3.00;;